^^
Station Historical Data
Daily Summary for May 6, 2017 Units:  English    Metric   Both
« Previous Day
Next Day »
Daily Weekly Monthly Yearly Custom
  High: Low: Average:
Temperature: 63.9 °F 48.1 °F 56.9 °F
Dew Point: 61.9 °F 46.2 °F 53.2 °F
Humidity: 95 % 71 % 87 %
Wind Speed: 12.2 mph 0.0 mph 2.5 mph
Wind Gust: 19.6 mph - -
Wind:- - SSW
Pressure: 29.51 in 29.30 in -
Precipitation: 0.18 in    
Historical Graphs
 
 
Tabular Data for May 6, 2017
Time Temperature Dew Point Pressure Wind Wind Speed Wind Gust Humidity Rainfall Rate (Hourly) solar Conditions
00:04 62.6 °F 61.1 °F 29.42 in Calm   5.8 mph 95 % 0.00 in 0.0 W/m2 -RA
00:09 62.7 °F 61.2 °F 29.42 in SSE 2.5 mph 4.0 mph 95 % 0.00 in 0.0 W/m2 -RA
00:15 62.7 °F 61.2 °F 29.42 in SE 0.1 mph 4.6 mph 95 % 0.00 in 0.0 W/m2 -RA
00:20 62.8 °F 61.3 °F 29.42 in Calm   4.0 mph 95 % 0.00 in 0.0 W/m2 -RA
00:25 62.8 °F 61.3 °F 29.42 in South 0.3 mph 3.5 mph 95 % 0.00 in 0.0 W/m2 -RA
00:30 62.9 °F 61.4 °F 29.41 in SSE 0.7 mph 9.2 mph 95 % 0.00 in 0.0 W/m2 -RA
00:35 62.9 °F 61.4 °F 29.42 in SSE 1.0 mph 9.0 mph 95 % 0.00 in 0.0 W/m2 -RA
00:40 63.0 °F 61.5 °F 29.41 in SSE 3.0 mph 9.0 mph 95 % 0.00 in 0.0 W/m2 -RA
00:45 63.0 °F 61.5 °F 29.41 in ESE 1.8 mph 5.8 mph 95 % 0.00 in 0.0 W/m2 -RA
00:50 63.1 °F 61.6 °F 29.41 in South 1.8 mph 3.5 mph 95 % 0.00 in 0.0 W/m2 -RA
00:55 63.1 °F 61.6 °F 29.41 in ENE 1.9 mph 5.8 mph 95 % 0.00 in 0.0 W/m2 -RA
01:00 63.2 °F 61.7 °F 29.41 in Calm     95 % 0.00 in 0.0 W/m2 -RA
01:05 63.1 °F 61.3 °F 29.41 in SE 0.4 mph 4.0 mph 94 % 0.00 in 0.0 W/m2 OVC
01:10 63.2 °F 61.4 °F 29.41 in Calm     94 % 0.00 in 0.0 W/m2 OVC
01:15 63.2 °F 61.4 °F 29.40 in SSE 0.8 mph 5.8 mph 94 % 0.00 in 0.0 W/m2 OVC
01:20 63.2 °F 61.4 °F 29.40 in Calm     94 % 0.00 in 0.0 W/m2 OVC
01:25 63.2 °F 61.4 °F 29.39 in Calm     94 % 0.00 in 0.0 W/m2 OVC
01:30 63.3 °F 61.5 °F 29.39 in SSW 1.4 mph 4.6 mph 94 % 0.00 in 0.0 W/m2 OVC
01:35 63.3 °F 61.5 °F 29.38 in Calm     94 % 0.00 in 0.0 W/m2 OVC
01:40 63.3 °F 61.5 °F 29.38 in Calm     94 % 0.00 in 0.0 W/m2 OVC
01:45 63.4 °F 61.6 °F 29.38 in SSE 0.1 mph 1.2 mph 94 % 0.00 in 0.0 W/m2 OVC
01:50 63.5 °F 61.7 °F 29.37 in Calm     94 % 0.00 in 0.0 W/m2 OVC
01:55 63.5 °F 61.7 °F 29.37 in SSE 0.2 mph 2.3 mph 94 % 0.00 in 0.0 W/m2 OVC
02:00 63.6 °F 61.8 °F 29.37 in ESE 0.7 mph 2.3 mph 94 % 0.00 in 0.0 W/m2 OVC
02:05 63.6 °F 61.8 °F 29.36 in South 0.9 mph 3.5 mph 94 % 0.00 in 0.0 W/m2 OVC
02:10 63.6 °F 61.8 °F 29.36 in Calm     94 % 0.00 in 0.0 W/m2 OVC
02:15 63.6 °F 61.8 °F 29.36 in Calm   1.2 mph 94 % 0.00 in 0.0 W/m2 OVC
02:20 63.7 °F 61.9 °F 29.36 in Calm   1.2 mph 94 % 0.00 in 0.0 W/m2 OVC
02:25 63.7 °F 61.6 °F 29.35 in Calm   4.6 mph 93 % 0.00 in 0.0 W/m2 OVC
02:30 63.7 °F 61.6 °F 29.35 in SW 0.1 mph   93 % 0.00 in 0.0 W/m2 OVC
02:35 63.7 °F 61.6 °F 29.34 in SE 1.2 mph 8.1 mph 93 % 0.00 in 0.0 W/m2 OVC
02:40 63.7 °F 61.6 °F 29.34 in Calm     93 % 0.00 in 0.0 W/m2 OVC
02:45 63.7 °F 61.6 °F 29.34 in Calm     93 % 0.00 in 0.0 W/m2 OVC
02:50 63.7 °F 61.6 °F 29.34 in South 0.3 mph 3.5 mph 93 % 0.00 in 0.0 W/m2 OVC
02:55 63.7 °F 61.6 °F 29.34 in Calm     93 % 0.00 in 0.0 W/m2 OVC
03:00 63.7 °F 61.6 °F 29.34 in Calm   2.3 mph 93 % 0.00 in 0.0 W/m2 OVC
03:05 63.8 °F 61.7 °F 29.33 in SE 0.6 mph 3.5 mph 93 % 0.00 in 0.0 W/m2 OVC
03:10 63.8 °F 61.7 °F 29.33 in Calm   1.2 mph 93 % 0.00 in 0.0 W/m2 OVC
03:15 63.8 °F 61.7 °F 29.33 in South 1.4 mph 5.8 mph 93 % 0.00 in 0.0 W/m2 OVC
03:20 63.8 °F 61.7 °F 29.33 in ESE 0.9 mph 5.8 mph 93 % 0.00 in 0.0 W/m2 OVC
03:25 63.8 °F 61.7 °F 29.32 in Calm   1.2 mph 93 % 0.00 in 0.0 W/m2 OVC
03:30 63.8 °F 61.7 °F 29.32 in SSW 0.2 mph 3.5 mph 93 % 0.00 in 0.0 W/m2 OVC
03:35 63.7 °F 61.6 °F 29.32 in East 1.7 mph 3.5 mph 93 % 0.00 in 0.0 W/m2 OVC
03:40 63.8 °F 61.7 °F 29.32 in SSW 0.2 mph 2.3 mph 93 % 0.00 in 0.0 W/m2 OVC
03:45 63.8 °F 61.7 °F 29.32 in ESE 0.5 mph 4.6 mph 93 % 0.00 in 0.0 W/m2 OVC
03:50 63.8 °F 61.7 °F 29.32 in Calm     93 % 0.00 in 0.0 W/m2 OVC
03:55 63.8 °F 61.7 °F 29.31 in Calm   3.5 mph 93 % 0.00 in 0.0 W/m2 OVC
04:00 63.8 °F 61.7 °F 29.31 in SSE 0.1 mph   93 % 0.00 in 0.0 W/m2 OVC
04:05 63.8 °F 61.7 °F 29.31 in SSE 0.4 mph 4.6 mph 93 % 0.00 in 0.0 W/m2 OVC
04:10 63.8 °F 61.7 °F 29.31 in Calm   2.3 mph 93 % 0.00 in 0.0 W/m2 OVC
04:15 63.8 °F 61.7 °F 29.31 in SE 0.1 mph 10.4 mph 93 % 0.00 in 0.0 W/m2 OVC
04:20 63.8 °F 61.4 °F 29.31 in Calm   1.2 mph 92 % 0.00 in 0.0 W/m2 OVC
04:25 63.8 °F 61.4 °F 29.30 in Calm   3.5 mph 92 % 0.00 in 0.0 W/m2 OVC
04:31 63.8 °F 61.4 °F 29.31 in SSW 0.1 mph 7.0 mph 92 % 0.00 in 0.0 W/m2 OVC
04:36 63.9 °F 61.5 °F 29.31 in SSE 2.1 mph 3.5 mph 92 % 0.00 in 0.0 W/m2 OVC
04:41 63.9 °F 61.5 °F 29.31 in ESE 2.2 mph 3.5 mph 92 % 0.00 in 0.0 W/m2 OVC
04:46 63.9 °F 61.5 °F 29.30 in SSE 1.9 mph 6.9 mph 92 % 0.00 in 0.0 W/m2 OVC
04:51 63.8 °F 61.4 °F 29.30 in ESE 2.9 mph 6.9 mph 92 % 0.01 in 0.0 W/m2 RA
04:56 63.7 °F 61.3 °F 29.30 in SSW 0.4 mph 3.5 mph 92 % 0.01 in 0.0 W/m2 RA
05:01 63.7 °F 61.3 °F 29.30 in SE 2.4 mph 5.8 mph 92 % 0.01 in 0.0 W/m2 OVC
05:06 63.6 °F 61.2 °F 29.30 in SSE 1.4 mph 3.5 mph 92 % 0.01 in 0.0 W/m2 OVC
05:11 63.5 °F 61.1 °F 29.30 in SSW 0.6 mph 6.0 mph 92 % 0.01 in 0.0 W/m2 OVC
05:16 63.5 °F 61.1 °F 29.31 in SSW 6.5 mph 10.4 mph 92 % 0.01 in 0.0 W/m2 OVC
05:21 63.4 °F 61.0 °F 29.30 in South 4.7 mph 8.1 mph 92 % 0.02 in 0.0 W/m2 RA
05:26 63.3 °F 60.9 °F 29.30 in South 0.4 mph 6.9 mph 92 % 0.02 in 0.0 W/m2 RA
05:31 63.2 °F 60.8 °F 29.31 in SSW 0.4 mph 3.0 mph 92 % 0.02 in 0.0 W/m2 OVC
05:36 63.0 °F 60.6 °F 29.31 in SSW 0.6 mph 3.5 mph 92 % 0.02 in 0.0 W/m2 OVC
05:41 62.9 °F 60.5 °F 29.31 in SSW 0.7 mph 4.6 mph 92 % 0.02 in 0.0 W/m2 OVC
05:46 62.7 °F 60.3 °F 29.31 in SSW 0.1 mph 1.2 mph 92 % 0.02 in 0.0 W/m2 OVC
05:51 62.5 °F 60.1 °F 29.32 in SSW 4.3 mph 5.8 mph 92 % 0.01 in 0.0 W/m2 OVC
05:56 62.3 °F 59.9 °F 29.32 in South 4.4 mph 10.4 mph 92 % 0.01 in 0.0 W/m2 OVC
06:01 62.2 °F 59.5 °F 29.32 in SSW 3.3 mph 6.9 mph 91 % 0.01 in 0.0 W/m2 BKN
06:06 62.1 °F 59.4 °F 29.33 in SSW 1.9 mph 4.6 mph 91 % 0.01 in 0.0 W/m2 BKN
06:11 62.0 °F 59.3 °F 29.33 in SSW 0.4 mph 5.8 mph 91 % 0.01 in 0.0 W/m2 BKN
06:16 61.8 °F 59.1 °F 29.34 in SSW 1.2 mph 4.6 mph 91 % 0.01 in 5.0 W/m2 BKN
06:21 61.6 °F 58.6 °F 29.34 in Calm     90 % 0.00 in 11.0 W/m2 SCT
06:26 61.4 °F 58.4 °F 29.34 in SSW 1.5 mph 3.5 mph 90 % 0.00 in 18.0 W/m2 SCT
06:31 61.3 °F 58.3 °F 29.33 in Calm   4.6 mph 90 % 0.00 in 21.0 W/m2 SCT
06:36 61.3 °F 58.3 °F 29.33 in Calm     90 % 0.00 in 19.0 W/m2 SCT
06:41 61.1 °F 58.1 °F 29.33 in South 0.2 mph 2.3 mph 90 % 0.00 in 18.0 W/m2 SCT
06:46 60.9 °F 57.6 °F 29.33 in SW 0.1 mph 3.5 mph 89 % 0.00 in 32.0 W/m2 SCT
06:51 60.8 °F 57.5 °F 29.33 in Calm     89 % 0.00 in 32.0 W/m2 SCT
06:56 60.7 °F 57.1 °F 29.33 in Calm     88 % 0.00 in 40.0 W/m2 SCT
07:01 60.6 °F 57.0 °F 29.33 in Calm     88 % 0.00 in 47.0 W/m2 SCT
07:06 60.5 °F 56.9 °F 29.32 in Calm     88 % 0.00 in 49.0 W/m2 SCT
07:11 60.4 °F 56.5 °F 29.33 in Calm     87 % 0.00 in 46.0 W/m2 SCT
07:16 60.5 °F 56.3 °F 29.32 in SSW 0.2 mph 2.3 mph 86 % 0.00 in 60.0 W/m2 SCT
07:21 60.7 °F 56.5 °F 29.33 in Calm     86 % 0.00 in 54.0 W/m2 SCT
07:26 60.7 °F 56.2 °F 29.33 in Calm   2.3 mph 85 % 0.00 in 51.0 W/m2 SCT
07:31 60.6 °F 56.4 °F 29.33 in Calm     86 % 0.00 in 30.0 W/m2 SCT
07:36 60.6 °F 56.1 °F 29.33 in Calm     85 % 0.00 in 56.0 W/m2 SCT
07:41 60.5 °F 56.3 °F 29.33 in SSW 0.2 mph 1.2 mph 86 % 0.00 in 25.0 W/m2 SCT
07:46 60.4 °F 55.5 °F 29.34 in South 3.5 mph 6.9 mph 84 % 0.00 in 32.0 W/m2 SCT
07:51 60.6 °F 55.7 °F 29.33 in South 1.6 mph 3.5 mph 84 % 0.00 in 26.0 W/m2 SCT
07:56 60.5 °F 55.0 °F 29.33 in SSW 4.9 mph 6.0 mph 82 % 0.00 in 63.0 W/m2 SCT
08:02 60.5 °F 55.0 °F 29.33 in SSW 6.3 mph 8.0 mph 82 % 0.00 in 49.0 W/m2 BKN
08:07 60.4 °F 54.9 °F 29.34 in South 0.8 mph 3.5 mph 82 % 0.00 in 40.0 W/m2 BKN
08:12 60.4 °F 54.9 °F 29.34 in South 0.2 mph 1.2 mph 82 % 0.00 in 33.0 W/m2 BKN
08:17 59.9 °F 54.1 °F 29.34 in South 2.7 mph 10.4 mph 81 % 0.01 in 53.0 W/m2 RA
08:22 59.6 °F 53.4 °F 29.34 in SSW 6.7 mph 11.5 mph 80 % 0.01 in 28.0 W/m2 RA
08:27 59.5 °F 53.0 °F 29.33 in SSW 2.8 mph 4.6 mph 79 % 0.01 in 42.0 W/m2 BKN
08:32 59.2 °F 52.7 °F 29.34 in SSW 4.5 mph 9.2 mph 79 % 0.01 in 76.0 W/m2 BKN
08:37 59.1 °F 52.6 °F 29.34 in South 1.4 mph 4.6 mph 79 % 0.01 in 130.0 W/m2 BKN
08:42 59.2 °F 52.7 °F 29.34 in South 8.0 mph 13.8 mph 79 % 0.01 in 179.0 W/m2 BKN
08:47 59.4 °F 52.9 °F 29.34 in SSW 4.8 mph 9.2 mph 79 % 0.01 in 192.0 W/m2 BKN
08:52 59.4 °F 52.9 °F 29.34 in South 5.7 mph 9.2 mph 79 % 0.01 in 218.0 W/m2 -RA
08:57 59.5 °F 53.0 °F 29.34 in SSW 6.2 mph 8.1 mph 79 % 0.01 in 209.0 W/m2 -RA
09:02 59.8 °F 53.3 °F 29.34 in SSE 3.4 mph 6.9 mph 79 % 0.01 in 118.0 W/m2 OVC
09:07 59.9 °F 53.0 °F 29.34 in South 5.4 mph 9.2 mph 78 % 0.01 in 729.0 W/m2 OVC
09:12 60.4 °F 52.8 °F 29.34 in South 5.8 mph 10.4 mph 76 % 0.01 in 204.0 W/m2 OVC
09:17 60.3 °F 52.7 °F 29.34 in SW 8.0 mph 19.6 mph 76 % 0.00 in 90.0 W/m2 OVC
09:22 59.7 °F 51.0 °F 29.34 in South 8.4 mph 11.5 mph 73 % 0.00 in 84.0 W/m2 OVC
09:27 59.4 °F 50.7 °F 29.34 in South 10.5 mph 15.0 mph 73 % 0.00 in 178.0 W/m2 OVC
09:32 59.5 °F 50.8 °F 29.35 in SSW 9.8 mph 18.4 mph 73 % 0.00 in 169.0 W/m2 OVC
09:37 59.5 °F 50.8 °F 29.35 in SSW 8.8 mph 11.5 mph 73 % 0.00 in 156.0 W/m2 OVC
09:42 59.5 °F 50.5 °F 29.35 in SSW 10.4 mph 19.6 mph 72 % 0.00 in 185.0 W/m2 OVC
09:47 59.5 °F 50.1 °F 29.35 in South 10.9 mph 16.1 mph 71 % 0.00 in 230.0 W/m2 OVC
09:52 59.7 °F 50.7 °F 29.35 in South 11.1 mph 15.0 mph 72 % 0.00 in 272.0 W/m2 OVC
09:57 60.0 °F 50.9 °F 29.35 in South 8.6 mph 12.7 mph 72 % 0.00 in 323.0 W/m2 OVC
10:02 60.4 °F 51.7 °F 29.35 in South 4.6 mph 12.7 mph 73 % 0.00 in 390.0 W/m2 BKN
10:07 60.7 °F 51.6 °F 29.35 in SE 4.2 mph 11.5 mph 72 % 0.00 in 341.0 W/m2 BKN
10:12 60.9 °F 52.2 °F 29.35 in SSW 5.1 mph 11.5 mph 73 % 0.00 in 359.0 W/m2 BKN
10:17 60.9 °F 51.4 °F 29.35 in South 3.8 mph 8.1 mph 71 % 0.00 in 297.0 W/m2 BKN
10:22 60.5 °F 51.0 °F 29.35 in South 4.4 mph 13.8 mph 71 % 0.00 in 192.0 W/m2 BKN
10:27 60.2 °F 51.1 °F 29.35 in South 6.3 mph 11.5 mph 72 % 0.00 in 251.0 W/m2 BKN
10:32 60.1 °F 51.4 °F 29.35 in South 3.2 mph 11.5 mph 73 % 0.00 in 348.0 W/m2 BKN
10:37 60.2 °F 51.1 °F 29.34 in South 5.5 mph 12.7 mph 72 % 0.00 in 367.0 W/m2 BKN
10:42 60.3 °F 51.2 °F 29.34 in South 7.3 mph 16.1 mph 72 % 0.00 in 297.0 W/m2 BKN
10:47 60.2 °F 51.5 °F 29.34 in South 4.9 mph 9.2 mph 73 % 0.00 in 295.0 W/m2 BKN
10:52 60.1 °F 51.4 °F 29.34 in South 6.3 mph 14.0 mph 73 % 0.00 in 250.0 W/m2 BKN
10:58 60.0 °F 50.9 °F 29.34 in South 10.9 mph 14.0 mph 72 % 0.00 in 171.0 W/m2 BKN
11:03 59.8 °F 51.1 °F 29.34 in SSW 6.5 mph 10.0 mph 73 % 0.00 in 153.0 W/m2 OVC
11:08 59.5 °F 50.8 °F 29.35 in SSW 11.5 mph 15.0 mph 73 % 0.00 in 195.0 W/m2 OVC
11:13 59.3 °F 50.6 °F 29.35 in SSW 12.2 mph 18.4 mph 73 % 0.00 in 172.0 W/m2 OVC
11:18 59.1 °F 50.8 °F 29.35 in SSW 6.1 mph 10.4 mph 74 % 0.00 in 134.0 W/m2 OVC
11:23 59.2 °F 51.3 °F 29.36 in SSW 5.8 mph 10.4 mph 75 % 0.00 in 332.0 W/m2 OVC
11:28 59.2 °F 51.3 °F 29.36 in South 10.6 mph 13.8 mph 75 % 0.00 in 174.0 W/m2 OVC
11:33 59.3 °F 51.4 °F 29.36 in South 2.4 mph 9.2 mph 75 % 0.00 in 111.0 W/m2 OVC
11:38 59.2 °F 51.3 °F 29.36 in South 1.9 mph 5.0 mph 75 % 0.00 in 79.0 W/m2 OVC
11:43 58.9 °F 51.3 °F 29.36 in South 5.5 mph 10.4 mph 76 % 0.00 in 67.0 W/m2 OVC
11:48 58.6 °F 51.4 °F 29.36 in South 9.5 mph 13.8 mph 77 % 0.00 in 84.0 W/m2 OVC
11:53 58.3 °F 51.1 °F 29.36 in SSW 6.0 mph 11.5 mph 77 % 0.00 in 102.0 W/m2 OVC
11:58 58.1 °F 51.6 °F 29.36 in South 7.6 mph 11.5 mph 79 % 0.00 in 176.0 W/m2 OVC
12:03 57.8 °F 51.3 °F 29.36 in South 3.4 mph 9.2 mph 79 % 0.00 in 123.0 W/m2 OVC
12:08 57.9 °F 51.8 °F 29.36 in SSW 2.7 mph 9.2 mph 80 % 0.00 in 104.0 W/m2 OVC
12:13 57.6 °F 51.5 °F 29.36 in South 3.7 mph 6.0 mph 80 % 0.00 in 53.0 W/m2 OVC
12:18 57.3 °F 51.9 °F 29.35 in SSE 3.3 mph 8.1 mph 82 % 0.00 in 83.0 W/m2 OVC
12:23 56.7 °F 51.6 °F 29.36 in South 3.4 mph 11.5 mph 83 % 0.00 in 76.0 W/m2 OVC
12:28 56.5 °F 52.0 °F 29.36 in South 0.1 mph 4.6 mph 85 % 0.00 in 120.0 W/m2 OVC
12:33 56.3 °F 52.2 °F 29.36 in South 1.5 mph 5.0 mph 86 % 0.00 in 97.0 W/m2 OVC
12:38 56.1 °F 52.3 °F 29.37 in SSE 1.2 mph 4.6 mph 87 % 0.00 in 128.0 W/m2 -RA
12:40 56.1 °F 52.3 °F 29.36 in South 1.5 mph 5.8 mph 87 % 0.00 in 128.0 W/m2 -RA
12:45 56.1 °F 52.3 °F 29.36 in SSW 3.8 mph 15.0 mph 87 % 0.00 in 132.0 W/m2 -RA
12:50 56.1 °F 52.6 °F 29.37 in Calm     88 % 0.00 in 84.0 W/m2 -RA
12:55 56.1 °F 52.6 °F 29.36 in South 2.3 mph 9.2 mph 88 % 0.00 in 146.0 W/m2 -RA
13:00 56.0 °F 52.5 °F 29.36 in SSW 3.3 mph 10.4 mph 88 % 0.00 in 162.0 W/m2 -RA
13:05 56.2 °F 52.7 °F 29.36 in SSW 3.3 mph 8.1 mph 88 % 0.00 in 120.0 W/m2 OVC
13:06 56.2 °F 52.7 °F 29.36 in SSW 3.7 mph 5.8 mph 88 % 0.00 in 95.0 W/m2 OVC
13:11 56.0 °F 52.5 °F 29.37 in SSW 4.6 mph 10.4 mph 88 % 0.00 in 102.0 W/m2 OVC
13:16 56.0 °F 52.5 °F 29.36 in SSW 0.9 mph 6.9 mph 88 % 0.00 in 165.0 W/m2 OVC
13:21 56.1 °F 52.9 °F 29.37 in SW 3.1 mph 5.8 mph 89 % 0.00 in 77.0 W/m2 OVC
13:26 56.0 °F 52.5 °F 29.37 in SSW 6.2 mph 8.1 mph 88 % 0.00 in 62.0 W/m2 OVC
13:31 56.1 °F 52.6 °F 29.37 in SSW 1.2 mph 6.9 mph 88 % 0.00 in 95.0 W/m2 OVC
13:36 56.1 °F 52.6 °F 29.37 in SSW 1.2 mph 5.8 mph 88 % 0.00 in 139.0 W/m2 OVC
13:41 56.2 °F 52.7 °F 29.37 in South 1.9 mph 8.1 mph 88 % 0.00 in 156.0 W/m2 OVC
13:46 56.6 °F 53.1 °F 29.37 in South 4.8 mph 9.2 mph 88 % 0.00 in 183.0 W/m2 OVC
13:51 56.7 °F 53.2 °F 29.37 in SSW 3.5 mph 8.1 mph 88 % 0.00 in 137.0 W/m2 OVC
13:56 56.8 °F 53.0 °F 29.37 in SSW 6.8 mph 9.2 mph 87 % 0.00 in 130.0 W/m2 OVC
14:01 56.9 °F 52.8 °F 29.37 in South 2.3 mph 8.1 mph 86 % 0.00 in 125.0 W/m2 OVC
14:06 56.9 °F 52.8 °F 29.36 in SSW 6.0 mph 10.4 mph 86 % 0.00 in 294.0 W/m2 OVC
14:11 57.3 °F 52.8 °F 29.36 in South 2.5 mph 8.1 mph 85 % 0.00 in 146.0 W/m2 OVC
14:16 57.6 °F 53.4 °F 29.37 in SSW 1.8 mph 6.9 mph 86 % 0.00 in 98.0 W/m2 OVC
14:21 57.6 °F 53.1 °F 29.36 in South 1.5 mph 8.1 mph 85 % 0.00 in 74.0 W/m2 OVC
14:26 57.5 °F 53.0 °F 29.36 in South 6.8 mph 11.5 mph 85 % 0.00 in 56.0 W/m2 OVC
14:31 57.4 °F 52.9 °F 29.37 in SSW 6.2 mph 11.0 mph 85 % 0.00 in 74.0 W/m2 OVC
14:36 57.1 °F 53.0 °F 29.37 in SSW 6.4 mph 9.2 mph 86 % 0.00 in 97.0 W/m2 OVC
14:41 56.7 °F 52.6 °F 29.37 in SSW 3.8 mph 13.8 mph 86 % 0.00 in 72.0 W/m2 OVC
14:46 56.3 °F 52.2 °F 29.37 in West 8.3 mph 13.8 mph 86 % 0.00 in 202.0 W/m2 OVC
14:51 56.1 °F 52.6 °F 29.38 in WSW 4.7 mph 9.0 mph 88 % 0.00 in 359.0 W/m2 OVC
14:56 55.9 °F 52.4 °F 29.38 in SW 5.8 mph 9.2 mph 88 % 0.00 in 309.0 W/m2 OVC
15:02 55.7 °F 51.9 °F 29.37 in West 6.8 mph 11.5 mph 87 % 0.00 in 236.0 W/m2 OVC
15:07 55.8 °F 52.0 °F 29.38 in West 7.0 mph 12.7 mph 87 % 0.00 in 109.0 W/m2 OVC
15:12 55.4 °F 51.3 °F 29.38 in SW 4.5 mph 15.0 mph 86 % 0.00 in 109.0 W/m2 OVC
15:17 55.1 °F 51.0 °F 29.38 in WSW 3.4 mph 8.1 mph 86 % 0.00 in 97.0 W/m2 OVC
15:22 55.1 °F 51.0 °F 29.38 in SW 5.7 mph 12.7 mph 86 % 0.00 in 100.0 W/m2 OVC
15:27 55.0 °F 50.9 °F 29.39 in SW 3.0 mph 5.0 mph 86 % 0.00 in 70.0 W/m2 OVC
15:32 54.8 °F 50.4 °F 29.39 in SW 0.5 mph 4.6 mph 85 % 0.00 in 70.0 W/m2 OVC
15:37 54.6 °F 50.2 °F 29.38 in WSW 4.8 mph 10.4 mph 85 % 0.00 in 100.0 W/m2 OVC
15:42 54.4 °F 50.0 °F 29.39 in SW 3.2 mph 6.9 mph 85 % 0.00 in 84.0 W/m2 OVC
15:47 54.3 °F 49.9 °F 29.39 in SSW 5.3 mph 12.7 mph 85 % 0.00 in 79.0 W/m2 OVC
15:52 54.2 °F 50.1 °F 29.39 in West 0.6 mph 3.5 mph 86 % 0.00 in 95.0 W/m2 OVC
15:57 54.3 °F 49.9 °F 29.39 in SSW 3.7 mph 9.2 mph 85 % 0.00 in 116.0 W/m2 OVC
16:02 54.3 °F 49.9 °F 29.40 in SW 5.4 mph 12.7 mph 85 % 0.00 in 125.0 W/m2 OVC
16:07 54.2 °F 49.5 °F 29.40 in SSW 1.3 mph 8.1 mph 84 % 0.00 in 105.0 W/m2 OVC
16:12 54.2 °F 49.5 °F 29.40 in West 5.3 mph 6.9 mph 84 % 0.00 in 91.0 W/m2 OVC
16:17 54.2 °F 49.5 °F 29.40 in West 4.4 mph 9.2 mph 84 % 0.00 in 76.0 W/m2 OVC
16:22 54.1 °F 49.4 °F 29.40 in SW 5.3 mph 8.0 mph 84 % 0.00 in 76.0 W/m2 OVC
16:27 53.9 °F 48.9 °F 29.40 in SSW 1.9 mph 6.9 mph 83 % 0.00 in 77.0 W/m2 OVC
16:32 53.5 °F 48.5 °F 29.40 in WSW 2.1 mph 11.5 mph 83 % 0.00 in 70.0 W/m2 OVC
16:37 53.4 °F 48.4 °F 29.40 in SSW 5.3 mph 10.4 mph 83 % 0.00 in 77.0 W/m2 OVC
16:42 53.0 °F 48.0 °F 29.41 in SW 4.5 mph 8.1 mph 83 % 0.00 in 67.0 W/m2 OVC
16:47 52.7 °F 48.0 °F 29.41 in West 0.8 mph 5.8 mph 84 % 0.00 in 56.0 W/m2 OVC
16:52 52.5 °F 48.1 °F 29.41 in SW 1.5 mph 6.9 mph 85 % 0.00 in 69.0 W/m2 OVC
16:57 52.4 °F 48.0 °F 29.41 in SW 3.6 mph 9.2 mph 85 % 0.00 in 91.0 W/m2 OVC
17:02 52.4 °F 48.0 °F 29.41 in SSW 2.7 mph 8.1 mph 85 % 0.00 in 137.0 W/m2 OVC
17:07 52.6 °F 47.9 °F 29.41 in SSW 1.5 mph 8.0 mph 84 % 0.00 in 171.0 W/m2 OVC
17:12 52.7 °F 48.0 °F 29.41 in West 1.7 mph 8.1 mph 84 % 0.00 in 185.0 W/m2 OVC
17:17 53.1 °F 48.4 °F 29.42 in SW 1.2 mph 2.0 mph 84 % 0.00 in 155.0 W/m2 OVC
17:22 53.0 °F 48.0 °F 29.42 in SSW 2.3 mph 10.4 mph 83 % 0.00 in 100.0 W/m2 OVC
17:27 53.1 °F 48.1 °F 29.42 in SW 2.1 mph 3.5 mph 83 % 0.00 in 54.0 W/m2 OVC
17:32 52.7 °F 47.7 °F 29.42 in WSW 5.5 mph 5.5 mph 83 % 0.00 in 53.0 W/m2 OVC
17:37 52.3 °F 47.3 °F 29.42 in SW 1.6 mph 3.5 mph 83 % 0.00 in 86.0 W/m2 OVC
17:42 52.1 °F 47.4 °F 29.42 in SW 2.4 mph 6.9 mph 84 % 0.00 in 70.0 W/m2 OVC
17:47 51.9 °F 47.5 °F 29.42 in WSW 2.9 mph 13.8 mph 85 % 0.00 in 23.0 W/m2 OVC
17:52 51.6 °F 47.2 °F 29.43 in WSW 1.0 mph 1.2 mph 85 % 0.00 in 16.0 W/m2 OVC
17:58 51.3 °F 47.3 °F 29.43 in SW 3.5 mph 9.2 mph 86 % 0.00 in 19.0 W/m2 OVC
18:03 51.2 °F 47.2 °F 29.43 in SSW 2.4 mph 8.0 mph 86 % 0.00 in 26.0 W/m2 OVC
18:08 50.9 °F 46.9 °F 29.43 in SW 2.2 mph 6.9 mph 86 % 0.00 in 28.0 W/m2 OVC
18:13 50.7 °F 47.0 °F 29.43 in WSW 0.5 mph 3.5 mph 87 % 0.00 in 16.0 W/m2 OVC
18:18 50.6 °F 46.9 °F 29.43 in SW 1.6 mph 8.1 mph 87 % 0.00 in 19.0 W/m2 OVC
18:23 50.5 °F 47.1 °F 29.43 in West 2.8 mph 7.0 mph 88 % 0.00 in 23.0 W/m2 OVC
18:28 50.4 °F 47.0 °F 29.43 in SW 6.2 mph 11.5 mph 88 % 0.00 in 26.0 W/m2 OVC
18:33 50.3 °F 46.9 °F 29.43 in WSW 1.4 mph 3.5 mph 88 % 0.00 in 32.0 W/m2 OVC
18:34 50.3 °F 46.9 °F 29.44 in WSW 2.2 mph 2.3 mph 88 % 0.00 in 39.0 W/m2 OVC
18:39 50.2 °F 47.1 °F 29.43 in SW 2.6 mph 3.5 mph 89 % 0.00 in 42.0 W/m2 OVC
18:44 50.1 °F 47.0 °F 29.43 in WSW 1.3 mph 5.8 mph 89 % 0.00 in 37.0 W/m2 OVC
18:49 50.3 °F 47.5 °F 29.43 in SSW 0.8 mph 3.0 mph 90 % 0.00 in 26.0 W/m2 OVC
18:54 49.8 °F 47.0 °F 29.43 in SW 2.6 mph 6.9 mph 90 % 0.00 in 39.0 W/m2 OVC
18:59 49.6 °F 46.8 °F 29.43 in Calm   4.6 mph 90 % 0.00 in 35.0 W/m2 OVC
19:04 49.4 °F 46.9 °F 29.43 in WSW 2.4 mph 8.0 mph 91 % 0.01 in 32.0 W/m2 RA
19:09 49.3 °F 46.8 °F 29.43 in SW 3.3 mph 8.1 mph 91 % 0.01 in 35.0 W/m2 RA
19:14 49.3 °F 46.8 °F 29.43 in WSW 1.4 mph 9.2 mph 91 % 0.01 in 33.0 W/m2 OVC
19:20 49.3 °F 46.8 °F 29.44 in Calm   12.7 mph 91 % 0.01 in 28.0 W/m2 OVC
19:25 49.3 °F 46.8 °F 29.44 in SW 1.0 mph 12.0 mph 91 % 0.00 in 21.0 W/m2 OVC
19:30 49.3 °F 46.8 °F 29.44 in West 2.7 mph 6.9 mph 91 % 0.01 in 14.0 W/m2 OVC
19:35 49.3 °F 46.8 °F 29.44 in WSW 1.8 mph 3.5 mph 91 % 0.01 in 11.0 W/m2 OVC
19:40 49.2 °F 46.7 °F 29.44 in SW 3.5 mph 6.9 mph 91 % 0.01 in 7.0 W/m2 OVC
19:45 49.3 °F 46.8 °F 29.44 in WSW 2.2 mph 4.6 mph 91 % 0.01 in 5.0 W/m2 OVC
19:50 49.4 °F 46.9 °F 29.44 in Calm     91 % 0.01 in 0.0 W/m2 OVC
19:55 49.5 °F 47.3 °F 29.45 in WSW 1.2 mph 3.5 mph 92 % 0.01 in 0.0 W/m2 OVC
20:00 49.4 °F 46.9 °F 29.45 in Calm   4.6 mph 91 % 0.01 in 0.0 W/m2 OVC
20:05 49.5 °F 47.3 °F 29.45 in WSW 0.5 mph 3.5 mph 92 % 0.00 in 0.0 W/m2 OVC
20:10 49.5 °F 47.3 °F 29.46 in SSW 1.7 mph 3.5 mph 92 % 0.00 in 0.0 W/m2 OVC
20:15 49.5 °F 47.3 °F 29.46 in SW 0.1 mph 2.3 mph 92 % 0.01 in 0.0 W/m2 RA
20:20 49.4 °F 47.2 °F 29.46 in Calm     92 % 0.02 in 0.0 W/m2 RA
20:25 49.4 °F 47.2 °F 29.46 in SW 0.8 mph 3.5 mph 92 % 0.03 in 0.0 W/m2 RA
20:30 49.4 °F 47.2 °F 29.46 in WSW 2.5 mph 6.9 mph 92 % 0.03 in 0.0 W/m2 RA
20:35 49.3 °F 47.1 °F 29.46 in Calm   1.2 mph 92 % 0.04 in 0.0 W/m2 RA
20:40 49.3 °F 47.1 °F 29.46 in WSW 0.2 mph 2.3 mph 92 % 0.04 in 0.0 W/m2 RA
20:45 49.2 °F 47.0 °F 29.46 in Calm     92 % 0.05 in 0.0 W/m2 RA
20:50 49.0 °F 46.8 °F 29.47 in West 2.8 mph 11.5 mph 92 % 0.05 in 0.0 W/m2 RA
20:55 48.9 °F 46.7 °F 29.47 in WSW 1.1 mph 6.9 mph 92 % 0.06 in 0.0 W/m2 RA
21:00 48.9 °F 46.7 °F 29.47 in WNW 0.6 mph 4.0 mph 92 % 0.06 in 0.0 W/m2 RA
21:05 48.9 °F 46.7 °F 29.48 in WSW 3.3 mph 5.8 mph 92 % 0.06 in 0.0 W/m2 -RA
21:10 48.9 °F 46.7 °F 29.48 in Calm     92 % 0.06 in 0.0 W/m2 -RA
21:15 49.0 °F 46.8 °F 29.48 in Calm     92 % 0.05 in 0.0 W/m2 -RA
21:20 49.0 °F 46.8 °F 29.48 in Calm     92 % 0.04 in 0.0 W/m2 -RA
21:25 49.0 °F 46.8 °F 29.49 in Calm     92 % 0.03 in 0.0 W/m2 -RA
21:30 48.9 °F 46.7 °F 29.49 in SW 3.3 mph 6.9 mph 92 % 0.03 in 0.0 W/m2 -RA
21:35 48.9 °F 47.0 °F 29.49 in WSW 1.3 mph 3.5 mph 93 % 0.03 in 0.0 W/m2 -RA
21:40 49.0 °F 47.1 °F 29.49 in SW 3.1 mph 5.0 mph 93 % 0.03 in 0.0 W/m2 -RA
21:45 48.9 °F 47.0 °F 29.50 in Calm     93 % 0.03 in 0.0 W/m2 -RA
21:50 48.9 °F 47.0 °F 29.50 in SW 0.1 mph 3.5 mph 93 % 0.03 in 0.0 W/m2 -RA
21:55 48.8 °F 46.9 °F 29.50 in SW 0.4 mph 3.5 mph 93 % 0.03 in 0.0 W/m2 -RA
22:00 48.7 °F 46.8 °F 29.50 in WSW 0.4 mph 3.5 mph 93 % 0.03 in 0.0 W/m2 -RA
22:05 48.6 °F 46.7 °F 29.50 in Calm     93 % 0.03 in 0.0 W/m2 -RA
22:10 48.6 °F 46.7 °F 29.50 in Calm   2.3 mph 93 % 0.04 in 0.0 W/m2 -RA
22:15 48.6 °F 46.7 °F 29.50 in SW 5.2 mph 11.5 mph 93 % 0.04 in 0.0 W/m2 -RA
22:20 48.5 °F 46.6 °F 29.50 in Calm     93 % 0.04 in 0.0 W/m2 -RA
22:25 48.5 °F 46.6 °F 29.50 in WSW 4.0 mph 9.2 mph 93 % 0.05 in 0.0 W/m2 -RA
22:30 48.5 °F 46.6 °F 29.50 in WSW 1.1 mph 4.6 mph 93 % 0.05 in 0.0 W/m2 -RA
22:35 48.5 °F 46.6 °F 29.49 in WSW 0.6 mph 3.5 mph 93 % 0.04 in 0.0 W/m2 -RA
22:40 48.5 °F 46.6 °F 29.49 in WSW 2.0 mph 4.6 mph 93 % 0.04 in 0.0 W/m2 -RA
22:45 48.5 °F 46.6 °F 29.50 in WSW 1.4 mph 4.6 mph 93 % 0.04 in 0.0 W/m2 -RA
22:50 48.5 °F 46.6 °F 29.50 in SW 0.4 mph 3.0 mph 93 % 0.04 in 0.0 W/m2 -RA
22:55 48.5 °F 46.6 °F 29.50 in Calm   1.2 mph 93 % 0.03 in 0.0 W/m2 -RA
23:00 48.5 °F 46.6 °F 29.50 in Calm     93 % 0.03 in 0.0 W/m2 -RA
23:05 48.5 °F 46.6 °F 29.50 in SW 0.2 mph 2.3 mph 93 % 0.03 in 0.0 W/m2 -RA
23:10 48.4 °F 46.5 °F 29.50 in Calm     93 % 0.02 in 0.0 W/m2 -RA
23:15 48.4 °F 46.5 °F 29.50 in WSW 1.6 mph 3.5 mph 93 % 0.02 in 0.0 W/m2 -RA
23:20 48.3 °F 46.4 °F 29.51 in SSW 0.3 mph 3.5 mph 93 % 0.02 in 0.0 W/m2 -RA
23:25 48.3 °F 46.4 °F 29.50 in Calm     93 % 0.01 in 0.0 W/m2 -RA
23:30 48.3 °F 46.4 °F 29.51 in SW 0.1 mph 5.8 mph 93 % 0.01 in 0.0 W/m2 -RA
23:35 48.3 °F 46.4 °F 29.51 in SW 0.9 mph 3.5 mph 93 % 0.01 in 0.0 W/m2 -RA
23:40 48.2 °F 46.3 °F 29.51 in Calm     93 % 0.01 in 0.0 W/m2 -RA
23:45 48.2 °F 46.3 °F 29.51 in Calm   3.5 mph 93 % 0.00 in 0.0 W/m2 -RA
23:50 48.1 °F 46.2 °F 29.51 in WSW 1.1 mph 4.0 mph 93 % 0.01 in 0.0 W/m2 -RA
23:55 48.1 °F 46.2 °F 29.51 in SW 0.9 mph 3.5 mph 93 % 0.01 in 0.0 W/m2 -RA
Air Products Campus Weather
Compliments of Weather Underground - 3.75 mb